sensor_id;sensor_type;location;lat;lon;timestamp;temperature;humidity
73360;DHT22;63092;43.582;19.528;2023-08-07T00:00:22;16.90;99.90
73360;DHT22;63092;43.582;19.528;2023-08-07T00:02:48;16.80;99.90
73360;DHT22;63092;43.582;19.528;2023-08-07T00:05:14;16.70;99.90
73360;DHT22;63092;43.582;19.528;2023-08-07T00:07:40;16.70;99.90
73360;DHT22;63092;43.582;19.528;2023-08-07T00:10:06;16.70;99.90
73360;DHT22;63092;43.582;19.528;2023-08-07T00:12:32;16.70;99.90
73360;DHT22;63092;43.582;19.528;2023-08-07T00:14:58;16.70;99.90
73360;DHT22;63092;43.582;19.528;2023-08-07T00:17:24;16.50;99.90
73360;DHT22;63092;43.582;19.528;2023-08-07T00:22:15;16.40;99.90
73360;DHT22;63092;43.582;19.528;2023-08-07T00:24:41;16.40;99.90
73360;DHT22;63092;43.582;19.528;2023-08-07T00:27:07;16.50;99.90
73360;DHT22;63092;43.582;19.528;2023-08-07T00:29:35;16.50;99.90
73360;DHT22;63092;43.582;19.528;2023-08-07T00:32:02;16.50;99.90
73360;DHT22;63092;43.582;19.528;2023-08-07T00:34:29;16.50;99.90
73360;DHT22;63092;43.582;19.528;2023-08-07T00:36:55;16.50;99.90
73360;DHT22;63092;43.582;19.528;2023-08-07T00:39:20;16.40;99.90
73360;DHT22;63092;43.582;19.528;2023-08-07T00:41:46;16.40;99.90
73360;DHT22;63092;43.582;19.528;2023-08-07T00:44:12;16.40;99.90
73360;DHT22;63092;43.582;19.528;2023-08-07T00:46:39;16.40;99.90
73360;DHT22;63092;43.582;19.528;2023-08-07T00:49:05;16.40;99.90
73360;DHT22;63092;43.582;19.528;2023-08-07T00:51:32;16.40;99.90
73360;DHT22;63092;43.582;19.528;2023-08-07T00:53:58;16.50;99.90
73360;DHT22;63092;43.582;19.528;2023-08-07T00:56:25;16.50;99.90
73360;DHT22;63092;43.582;19.528;2023-08-07T00:58:52;16.50;99.90
73360;DHT22;63092;43.582;19.528;2023-08-07T01:01:18;16.50;99.90
73360;DHT22;63092;43.582;19.528;2023-08-07T01:03:44;16.60;99.90
73360;DHT22;63092;43.582;19.528;2023-08-07T01:06:10;16.50;99.90
73360;DHT22;63092;43.582;19.528;2023-08-07T01:08:36;16.50;99.90
73360;DHT22;63092;43.582;19.528;2023-08-07T01:16:23;16.50;99.90
73360;DHT22;63092;43.582;19.528;2023-08-07T01:18:52;16.50;99.90
73360;DHT22;63092;43.582;19.528;2023-08-07T01:21:20;16.60;99.90
73360;DHT22;63092;43.582;19.528;2023-08-07T01:23:47;16.70;99.90
73360;DHT22;63092;43.582;19.528;2023-08-07T01:26:14;16.70;99.90
73360;DHT22;63092;43.582;19.528;2023-08-07T01:28:48;16.70;99.90
73360;DHT22;63092;43.582;19.528;2023-08-07T01:31:16;16.70;99.90
73360;DHT22;63092;43.582;19.528;2023-08-07T01:33:51;16.50;99.90
73360;DHT22;63092;43.582;19.528;2023-08-07T01:36:21;16.50;99.90
73360;DHT22;63092;43.582;19.528;2023-08-07T01:38:49;16.40;99.90
73360;DHT22;63092;43.582;19.528;2023-08-07T01:41:15;16.50;99.90
73360;DHT22;63092;43.582;19.528;2023-08-07T01:43:41;16.50;99.90
73360;DHT22;63092;43.582;19.528;2023-08-07T01:46:07;16.50;99.90
73360;DHT22;63092;43.582;19.528;2023-08-07T01:48:33;16.40;99.90
73360;DHT22;63092;43.582;19.528;2023-08-07T01:50:58;16.50;99.90
73360;DHT22;63092;43.582;19.528;2023-08-07T01:53:24;16.50;99.90
73360;DHT22;63092;43.582;19.528;2023-08-07T01:55:50;16.50;99.90
73360;DHT22;63092;43.582;19.528;2023-08-07T01:58:16;16.50;99.90
73360;DHT22;63092;43.582;19.528;2023-08-07T02:00:41;16.40;99.90
73360;DHT22;63092;43.582;19.528;2023-08-07T02:03:07;16.50;99.90
73360;DHT22;63092;43.582;19.528;2023-08-07T02:05:33;16.50;99.90
73360;DHT22;63092;43.582;19.528;2023-08-07T02:07:58;16.50;99.90
73360;DHT22;63092;43.582;19.528;2023-08-07T02:10:24;16.50;99.90
73360;DHT22;63092;43.582;19.528;2023-08-07T02:12:50;16.60;99.90
73360;DHT22;63092;43.582;19.528;2023-08-07T02:15:16;16.50;99.90
73360;DHT22;63092;43.582;19.528;2023-08-07T02:17:42;16.50;99.90
73360;DHT22;63092;43.582;19.528;2023-08-07T02:20:08;16.50;99.90
73360;DHT22;63092;43.582;19.528;2023-08-07T02:22:34;16.60;99.90
73360;DHT22;63092;43.582;19.528;2023-08-07T02:25:00;16.60;99.90
73360;DHT22;63092;43.582;19.528;2023-08-07T02:27:25;16.70;99.90
73360;DHT22;63092;43.582;19.528;2023-08-07T02:29:51;16.70;99.90
73360;DHT22;63092;43.582;19.528;2023-08-07T02:32:17;16.70;99.90
73360;DHT22;63092;43.582;19.528;2023-08-07T02:34:44;16.70;99.90
73360;DHT22;63092;43.582;19.528;2023-08-07T02:37:09;16.70;99.90
73360;DHT22;63092;43.582;19.528;2023-08-07T02:39:35;16.70;99.90
73360;DHT22;63092;43.582;19.528;2023-08-07T02:42:01;16.70;99.90
73360;DHT22;63092;43.582;19.528;2023-08-07T02:44:26;16.70;99.90
73360;DHT22;63092;43.582;19.528;2023-08-07T02:46:52;16.80;99.90
73360;DHT22;63092;43.582;19.528;2023-08-07T02:49:18;16.80;99.90
73360;DHT22;63092;43.582;19.528;2023-08-07T02:51:44;16.80;99.90
73360;DHT22;63092;43.582;19.528;2023-08-07T02:54:09;16.80;99.90
73360;DHT22;63092;43.582;19.528;2023-08-07T02:56:35;16.80;99.90
73360;DHT22;63092;43.582;19.528;2023-08-07T02:59:01;16.70;99.90
73360;DHT22;63092;43.582;19.528;2023-08-07T03:01:27;16.80;99.90
73360;DHT22;63092;43.582;19.528;2023-08-07T03:03:53;16.80;99.90
73360;DHT22;63092;43.582;19.528;2023-08-07T03:06:19;16.70;99.90
73360;DHT22;63092;43.582;19.528;2023-08-07T03:08:44;16.70;99.90
73360;DHT22;63092;43.582;19.528;2023-08-07T03:11:10;16.70;99.90
73360;DHT22;63092;43.582;19.528;2023-08-07T03:13:36;16.60;99.90
73360;DHT22;63092;43.582;19.528;2023-08-07T03:16:02;16.50;99.90
73360;DHT22;63092;43.582;19.528;2023-08-07T03:18:29;16.50;99.90
73360;DHT22;63092;43.582;19.528;2023-08-07T03:20:58;16.50;99.90
73360;DHT22;63092;43.582;19.528;2023-08-07T03:23:25;16.50;99.90
73360;DHT22;63092;43.582;19.528;2023-08-07T03:26:02;16.50;99.90
73360;DHT22;63092;43.582;19.528;2023-08-07T03:28:28;16.50;99.90
73360;DHT22;63092;43.582;19.528;2023-08-07T03:30:53;16.50;99.90
73360;DHT22;63092;43.582;19.528;2023-08-07T03:33:19;16.60;99.90
73360;DHT22;63092;43.582;19.528;2023-08-07T03:35:45;16.60;99.90
73360;DHT22;63092;43.582;19.528;2023-08-07T03:38:11;16.70;99.90
73360;DHT22;63092;43.582;19.528;2023-08-07T03:40:36;16.60;99.90
73360;DHT22;63092;43.582;19.528;2023-08-07T03:43:02;16.70;99.90
73360;DHT22;63092;43.582;19.528;2023-08-07T03:45:28;16.70;99.90
73360;DHT22;63092;43.582;19.528;2023-08-07T03:47:54;16.70;99.90
73360;DHT22;63092;43.582;19.528;2023-08-07T03:50:19;16.70;99.90
73360;DHT22;63092;43.582;19.528;2023-08-07T03:52:45;16.70;99.90
73360;DHT22;63092;43.582;19.528;2023-08-07T03:55:11;16.70;99.90
73360;DHT22;63092;43.582;19.528;2023-08-07T03:57:36;16.70;99.90
73360;DHT22;63092;43.582;19.528;2023-08-07T04:00:02;16.60;99.90
73360;DHT22;63092;43.582;19.528;2023-08-07T04:02:28;16.60;99.90
73360;DHT22;63092;43.582;19.528;2023-08-07T04:04:55;16.70;99.90
73360;DHT22;63092;43.582;19.528;2023-08-07T04:07:21;16.70;99.90
73360;DHT22;63092;43.582;19.528;2023-08-07T04:09:47;16.70;99.90
73360;DHT22;63092;43.582;19.528;2023-08-07T04:12:13;16.80;99.90
73360;DHT22;63092;43.582;19.528;2023-08-07T04:14:39;16.80;99.90
73360;DHT22;63092;43.582;19.528;2023-08-07T04:17:05;16.50;99.90
73360;DHT22;63092;43.582;19.528;2023-08-07T04:19:30;16.50;99.90
73360;DHT22;63092;43.582;19.528;2023-08-07T04:21:56;16.60;99.90
73360;DHT22;63092;43.582;19.528;2023-08-07T04:24:22;16.70;99.90
73360;DHT22;63092;43.582;19.528;2023-08-07T04:26:48;16.70;99.90
73360;DHT22;63092;43.582;19.528;2023-08-07T04:29:13;16.70;99.90
73360;DHT22;63092;43.582;19.528;2023-08-07T04:31:39;16.70;99.90
73360;DHT22;63092;43.582;19.528;2023-08-07T04:34:05;16.80;99.90
73360;DHT22;63092;43.582;19.528;2023-08-07T04:36:31;16.80;99.90
73360;DHT22;63092;43.582;19.528;2023-08-07T04:38:56;16.80;99.90
73360;DHT22;63092;43.582;19.528;2023-08-07T04:41:22;16.80;99.90
73360;DHT22;63092;43.582;19.528;2023-08-07T04:43:48;16.80;99.90
73360;DHT22;63092;43.582;19.528;2023-08-07T04:46:14;16.90;99.90
73360;DHT22;63092;43.582;19.528;2023-08-07T04:48:40;16.80;99.90
73360;DHT22;63092;43.582;19.528;2023-08-07T04:51:06;16.90;99.90
73360;DHT22;63092;43.582;19.528;2023-08-07T04:53:32;16.80;99.90
73360;DHT22;63092;43.582;19.528;2023-08-07T04:55:59;16.80;99.90
73360;DHT22;63092;43.582;19.528;2023-08-07T04:58:25;16.90;99.90
73360;DHT22;63092;43.582;19.528;2023-08-07T05:00:57;16.80;99.90
73360;DHT22;63092;43.582;19.528;2023-08-07T05:03:26;16.80;99.90
73360;DHT22;63092;43.582;19.528;2023-08-07T05:06:00;16.70;99.90
73360;DHT22;63092;43.582;19.528;2023-08-07T05:08:26;16.70;99.90
73360;DHT22;63092;43.582;19.528;2023-08-07T05:10:52;16.70;99.90
73360;DHT22;63092;43.582;19.528;2023-08-07T05:13:18;16.70;99.90
73360;DHT22;63092;43.582;19.528;2023-08-07T05:15:43;16.70;99.90
73360;DHT22;63092;43.582;19.528;2023-08-07T05:18:09;16.80;99.90
73360;DHT22;63092;43.582;19.528;2023-08-07T05:20:35;16.80;99.90
73360;DHT22;63092;43.582;19.528;2023-08-07T05:23:00;16.80;99.90
73360;DHT22;63092;43.582;19.528;2023-08-07T05:25:26;16.90;99.90
73360;DHT22;63092;43.582;19.528;2023-08-07T05:27:52;16.90;99.90
73360;DHT22;63092;43.582;19.528;2023-08-07T05:30:18;16.90;99.90
73360;DHT22;63092;43.582;19.528;2023-08-07T05:32:44;17.00;99.90
73360;DHT22;63092;43.582;19.528;2023-08-07T05:35:09;17.00;99.90
73360;DHT22;63092;43.582;19.528;2023-08-07T05:37:36;17.10;99.90
73360;DHT22;63092;43.582;19.528;2023-08-07T05:40:02;17.10;99.90
73360;DHT22;63092;43.582;19.528;2023-08-07T05:42:28;17.10;99.90
73360;DHT22;63092;43.582;19.528;2023-08-07T05:44:54;17.10;99.90
73360;DHT22;63092;43.582;19.528;2023-08-07T05:47:20;17.10;99.90
73360;DHT22;63092;43.582;19.528;2023-08-07T05:49:45;17.10;99.90
73360;DHT22;63092;43.582;19.528;2023-08-07T05:52:11;17.10;99.90
73360;DHT22;63092;43.582;19.528;2023-08-07T05:54:37;17.20;99.90
73360;DHT22;63092;43.582;19.528;2023-08-07T05:57:03;17.20;99.90
73360;DHT22;63092;43.582;19.528;2023-08-07T05:59:29;17.20;99.90
73360;DHT22;63092;43.582;19.528;2023-08-07T06:01:55;17.20;99.90
73360;DHT22;63092;43.582;19.528;2023-08-07T06:04:21;17.20;99.90
73360;DHT22;63092;43.582;19.528;2023-08-07T06:06:47;17.30;99.90
73360;DHT22;63092;43.582;19.528;2023-08-07T06:09:13;17.40;99.90
73360;DHT22;63092;43.582;19.528;2023-08-07T06:11:42;17.40;99.90
73360;DHT22;63092;43.582;19.528;2023-08-07T06:14:08;17.50;99.90
73360;DHT22;63092;43.582;19.528;2023-08-07T06:16:33;17.50;99.90
73360;DHT22;63092;43.582;19.528;2023-08-07T06:18:59;17.50;99.90
73360;DHT22;63092;43.582;19.528;2023-08-07T06:21:25;17.50;99.90
73360;DHT22;63092;43.582;19.528;2023-08-07T06:23:51;17.50;99.90
73360;DHT22;63092;43.582;19.528;2023-08-07T06:26:17;17.50;99.90
73360;DHT22;63092;43.582;19.528;2023-08-07T06:28:43;17.60;99.90
73360;DHT22;63092;43.582;19.528;2023-08-07T06:31:10;17.70;99.90
73360;DHT22;63092;43.582;19.528;2023-08-07T06:33:36;17.70;99.90
73360;DHT22;63092;43.582;19.528;2023-08-07T06:36:03;17.60;99.90
73360;DHT22;63092;43.582;19.528;2023-08-07T06:38:29;17.50;99.90
73360;DHT22;63092;43.582;19.528;2023-08-07T06:40:55;17.50;99.90
73360;DHT22;63092;43.582;19.528;2023-08-07T06:43:21;17.30;99.90
73360;DHT22;63092;43.582;19.528;2023-08-07T06:45:50;17.20;99.90
73360;DHT22;63092;43.582;19.528;2023-08-07T06:48:18;17.20;99.90
73360;DHT22;63092;43.582;19.528;2023-08-07T06:50:43;17.30;99.90
73360;DHT22;63092;43.582;19.528;2023-08-07T06:53:09;17.40;99.90
73360;DHT22;63092;43.582;19.528;2023-08-07T06:55:35;17.40;99.90
73360;DHT22;63092;43.582;19.528;2023-08-07T06:58:01;17.40;99.90
73360;DHT22;63092;43.582;19.528;2023-08-07T07:00:26;17.60;99.90
73360;DHT22;63092;43.582;19.528;2023-08-07T07:02:52;17.60;99.90
73360;DHT22;63092;43.582;19.528;2023-08-07T07:05:18;17.80;99.90
73360;DHT22;63092;43.582;19.528;2023-08-07T07:07:44;17.90;99.90
73360;DHT22;63092;43.582;19.528;2023-08-07T07:10:10;17.90;99.90
73360;DHT22;63092;43.582;19.528;2023-08-07T07:12:36;18.00;99.90
73360;DHT22;63092;43.582;19.528;2023-08-07T07:15:02;18.30;99.90
73360;DHT22;63092;43.582;19.528;2023-08-07T07:17:28;18.30;99.90
73360;DHT22;63092;43.582;19.528;2023-08-07T07:19:53;18.30;99.90
73360;DHT22;63092;43.582;19.528;2023-08-07T07:22:19;18.30;99.90
73360;DHT22;63092;43.582;19.528;2023-08-07T07:24:45;18.40;99.90
73360;DHT22;63092;43.582;19.528;2023-08-07T07:27:11;18.40;99.90
73360;DHT22;63092;43.582;19.528;2023-08-07T07:29:36;18.70;99.90
73360;DHT22;63092;43.582;19.528;2023-08-07T07:32:02;18.70;99.90
73360;DHT22;63092;43.582;19.528;2023-08-07T07:34:28;18.70;99.90
73360;DHT22;63092;43.582;19.528;2023-08-07T07:36:54;19.00;99.90
73360;DHT22;63092;43.582;19.528;2023-08-07T07:39:20;19.20;99.90
73360;DHT22;63092;43.582;19.528;2023-08-07T07:41:46;19.20;99.90
73360;DHT22;63092;43.582;19.528;2023-08-07T07:44:12;19.30;99.90
73360;DHT22;63092;43.582;19.528;2023-08-07T07:46:38;19.30;99.90
73360;DHT22;63092;43.582;19.528;2023-08-07T07:49:04;19.50;99.90
73360;DHT22;63092;43.582;19.528;2023-08-07T07:51:31;19.50;99.90
73360;DHT22;63092;43.582;19.528;2023-08-07T07:53:58;19.30;99.90
73360;DHT22;63092;43.582;19.528;2023-08-07T07:56:23;19.40;99.90
73360;DHT22;63092;43.582;19.528;2023-08-07T07:58:49;19.40;99.90
73360;DHT22;63092;43.582;19.528;2023-08-07T08:01:15;19.40;99.90
73360;DHT22;63092;43.582;19.528;2023-08-07T08:03:44;19.30;99.90
73360;DHT22;63092;43.582;19.528;2023-08-07T08:06:15;19.30;99.90
73360;DHT22;63092;43.582;19.528;2023-08-07T08:08:43;19.40;99.90
73360;DHT22;63092;43.582;19.528;2023-08-07T08:11:08;19.50;99.90
73360;DHT22;63092;43.582;19.528;2023-08-07T08:13:34;19.70;99.90
73360;DHT22;63092;43.582;19.528;2023-08-07T08:16:04;19.80;99.90
73360;DHT22;63092;43.582;19.528;2023-08-07T08:18:30;19.80;99.90
73360;DHT22;63092;43.582;19.528;2023-08-07T08:20:55;19.80;99.90
73360;DHT22;63092;43.582;19.528;2023-08-07T08:23:21;19.80;99.90
73360;DHT22;63092;43.582;19.528;2023-08-07T08:25:48;19.80;99.90
73360;DHT22;63092;43.582;19.528;2023-08-07T08:28:14;20.00;99.90
73360;DHT22;63092;43.582;19.528;2023-08-07T08:30:39;20.00;99.90
73360;DHT22;63092;43.582;19.528;2023-08-07T08:33:05;20.10;99.90
73360;DHT22;63092;43.582;19.528;2023-08-07T08:35:31;20.30;99.90
73360;DHT22;63092;43.582;19.528;2023-08-07T08:37:57;20.30;99.90
73360;DHT22;63092;43.582;19.528;2023-08-07T08:40:24;20.40;99.90
73360;DHT22;63092;43.582;19.528;2023-08-07T08:42:50;20.60;99.90
73360;DHT22;63092;43.582;19.528;2023-08-07T08:45:19;20.80;99.90
73360;DHT22;63092;43.582;19.528;2023-08-07T08:50:16;20.90;99.90
73360;DHT22;63092;43.582;19.528;2023-08-07T08:52:43;20.80;99.90
73360;DHT22;63092;43.582;19.528;2023-08-07T08:55:11;20.90;99.90
73360;DHT22;63092;43.582;19.528;2023-08-07T08:57:38;21.10;99.20
73360;DHT22;63092;43.582;19.528;2023-08-07T09:00:08;21.10;98.50
73360;DHT22;63092;43.582;19.528;2023-08-07T09:02:47;21.20;99.20
73360;DHT22;63092;43.582;19.528;2023-08-07T09:07:43;21.50;98.70
73360;DHT22;63092;43.582;19.528;2023-08-07T09:10:12;21.60;98.40
73360;DHT22;63092;43.582;19.528;2023-08-07T09:12:45;21.50;98.40
73360;DHT22;63092;43.582;19.528;2023-08-07T09:15:16;21.30;98.00
73360;DHT22;63092;43.582;19.528;2023-08-07T09:17:42;21.30;98.30
73360;DHT22;63092;43.582;19.528;2023-08-07T09:20:10;21.30;97.20
73360;DHT22;63092;43.582;19.528;2023-08-07T09:22:41;21.40;97.50
73360;DHT22;63092;43.582;19.528;2023-08-07T09:25:08;21.30;96.90
73360;DHT22;63092;43.582;19.528;2023-08-07T09:27:39;21.50;97.00
73360;DHT22;63092;43.582;19.528;2023-08-07T09:30:06;21.60;96.90
73360;DHT22;63092;43.582;19.528;2023-08-07T09:32:34;21.80;96.00
73360;DHT22;63092;43.582;19.528;2023-08-07T09:35:02;21.90;97.10
73360;DHT22;63092;43.582;19.528;2023-08-07T09:37:28;22.10;95.30
73360;DHT22;63092;43.582;19.528;2023-08-07T09:39:54;22.10;95.10
73360;DHT22;63092;43.582;19.528;2023-08-07T09:42:21;22.00;95.70
73360;DHT22;63092;43.582;19.528;2023-08-07T09:44:46;22.10;95.70
73360;DHT22;63092;43.582;19.528;2023-08-07T09:47:18;22.30;95.80
73360;DHT22;63092;43.582;19.528;2023-08-07T09:49:45;22.40;94.20
73360;DHT22;63092;43.582;19.528;2023-08-07T09:52:13;22.50;94.90
73360;DHT22;63092;43.582;19.528;2023-08-07T09:54:39;22.60;94.60
73360;DHT22;63092;43.582;19.528;2023-08-07T09:57:06;22.70;93.80
73360;DHT22;63092;43.582;19.528;2023-08-07T09:59:35;22.50;93.90
73360;DHT22;63092;43.582;19.528;2023-08-07T10:02:02;22.60;94.40
73360;DHT22;63092;43.582;19.528;2023-08-07T10:04:29;22.60;93.90
73360;DHT22;63092;43.582;19.528;2023-08-07T10:06:55;22.70;94.10
73360;DHT22;63092;43.582;19.528;2023-08-07T10:09:21;22.70;94.40
73360;DHT22;63092;43.582;19.528;2023-08-07T10:11:49;22.90;94.10
73360;DHT22;63092;43.582;19.528;2023-08-07T10:14:15;22.80;93.90
73360;DHT22;63092;43.582;19.528;2023-08-07T10:19:08;23.00;93.60
73360;DHT22;63092;43.582;19.528;2023-08-07T10:21:41;23.10;94.50
73360;DHT22;63092;43.582;19.528;2023-08-07T10:24:09;23.20;93.70
73360;DHT22;63092;43.582;19.528;2023-08-07T10:26:40;23.20;93.90
73360;DHT22;63092;43.582;19.528;2023-08-07T10:29:10;23.30;93.60
73360;DHT22;63092;43.582;19.528;2023-08-07T10:31:36;23.50;94.10
73360;DHT22;63092;43.582;19.528;2023-08-07T10:36:32;23.80;92.30
73360;DHT22;63092;43.582;19.528;2023-08-07T10:39:09;23.80;91.80
73360;DHT22;63092;43.582;19.528;2023-08-07T10:41:45;23.90;91.10
73360;DHT22;63092;43.582;19.528;2023-08-07T10:44:22;23.90;90.90
73360;DHT22;63092;43.582;19.528;2023-08-07T10:46:53;24.00;92.00
73360;DHT22;63092;43.582;19.528;2023-08-07T10:49:35;24.00;90.50
73360;DHT22;63092;43.582;19.528;2023-08-07T10:52:14;24.00;90.30
73360;DHT22;63092;43.582;19.528;2023-08-07T10:57:15;24.20;87.90
73360;DHT22;63092;43.582;19.528;2023-08-07T11:02:24;24.30;87.90
73360;DHT22;63092;43.582;19.528;2023-08-07T11:04:54;24.20;87.50
73360;DHT22;63092;43.582;19.528;2023-08-07T11:07:28;24.30;87.60
73360;DHT22;63092;43.582;19.528;2023-08-07T11:09:54;24.40;88.20
73360;DHT22;63092;43.582;19.528;2023-08-07T11:12:23;24.60;87.90
73360;DHT22;63092;43.582;19.528;2023-08-07T11:14:49;24.60;87.40
73360;DHT22;63092;43.582;19.528;2023-08-07T11:17:16;24.60;85.00
73360;DHT22;63092;43.582;19.528;2023-08-07T11:19:42;24.60;85.10
73360;DHT22;63092;43.582;19.528;2023-08-07T11:22:08;24.70;83.30
73360;DHT22;63092;43.582;19.528;2023-08-07T11:24:34;24.90;86.70
73360;DHT22;63092;43.582;19.528;2023-08-07T11:27:00;24.80;86.70
73360;DHT22;63092;43.582;19.528;2023-08-07T11:29:26;24.90;85.30
73360;DHT22;63092;43.582;19.528;2023-08-07T11:31:51;24.90;85.50
73360;DHT22;63092;43.582;19.528;2023-08-07T11:34:18;24.90;86.00
73360;DHT22;63092;43.582;19.528;2023-08-07T11:36:44;24.90;84.80
73360;DHT22;63092;43.582;19.528;2023-08-07T11:39:11;24.80;83.20
73360;DHT22;63092;43.582;19.528;2023-08-07T11:41:37;24.80;83.80
73360;DHT22;63092;43.582;19.528;2023-08-07T11:44:02;24.80;83.10
73360;DHT22;63092;43.582;19.528;2023-08-07T11:46:28;24.70;83.90
73360;DHT22;63092;43.582;19.528;2023-08-07T11:48:56;24.80;85.80
73360;DHT22;63092;43.582;19.528;2023-08-07T11:51:22;24.80;83.50
73360;DHT22;63092;43.582;19.528;2023-08-07T11:53:48;24.90;84.70
73360;DHT22;63092;43.582;19.528;2023-08-07T11:56:14;24.90;83.60
73360;DHT22;63092;43.582;19.528;2023-08-07T11:58:45;24.80;84.10
73360;DHT22;63092;43.582;19.528;2023-08-07T12:01:19;24.90;83.70
73360;DHT22;63092;43.582;19.528;2023-08-07T12:06:25;25.20;83.60
73360;DHT22;63092;43.582;19.528;2023-08-07T12:08:54;25.40;82.30
73360;DHT22;63092;43.582;19.528;2023-08-07T12:11:21;25.40;80.50
73360;DHT22;63092;43.582;19.528;2023-08-07T12:13:48;25.60;81.40
73360;DHT22;63092;43.582;19.528;2023-08-07T12:16:15;25.50;81.10
73360;DHT22;63092;43.582;19.528;2023-08-07T12:18:51;25.40;82.10
73360;DHT22;63092;43.582;19.528;2023-08-07T12:21:21;25.50;82.10
73360;DHT22;63092;43.582;19.528;2023-08-07T12:23:51;25.50;82.10
73360;DHT22;63092;43.582;19.528;2023-08-07T12:26:19;25.50;82.60
73360;DHT22;63092;43.582;19.528;2023-08-07T12:28:45;25.40;83.50
73360;DHT22;63092;43.582;19.528;2023-08-07T12:31:11;25.40;83.60
73360;DHT22;63092;43.582;19.528;2023-08-07T12:33:37;25.50;84.50
73360;DHT22;63092;43.582;19.528;2023-08-07T12:36:03;25.40;85.10
73360;DHT22;63092;43.582;19.528;2023-08-07T12:38:29;25.30;86.10
73360;DHT22;63092;43.582;19.528;2023-08-07T12:40:54;25.20;88.00
73360;DHT22;63092;43.582;19.528;2023-08-07T12:43:20;25.30;87.60
73360;DHT22;63092;43.582;19.528;2023-08-07T12:45:46;25.30;88.40
73360;DHT22;63092;43.582;19.528;2023-08-07T12:48:12;25.30;86.20
73360;DHT22;63092;43.582;19.528;2023-08-07T12:53:05;25.60;86.60
73360;DHT22;63092;43.582;19.528;2023-08-07T12:55:31;25.60;85.00
73360;DHT22;63092;43.582;19.528;2023-08-07T12:57:57;25.80;85.40
73360;DHT22;63092;43.582;19.528;2023-08-07T13:00:23;25.70;84.20
73360;DHT22;63092;43.582;19.528;2023-08-07T13:02:51;25.80;84.50
73360;DHT22;63092;43.582;19.528;2023-08-07T13:05:18;25.80;83.30
73360;DHT22;63092;43.582;19.528;2023-08-07T13:07:44;25.80;84.00
73360;DHT22;63092;43.582;19.528;2023-08-07T13:10:12;25.80;84.10
73360;DHT22;63092;43.582;19.528;2023-08-07T13:12:41;25.80;84.10
73360;DHT22;63092;43.582;19.528;2023-08-07T13:15:09;25.70;83.90
73360;DHT22;63092;43.582;19.528;2023-08-07T13:17:36;25.70;84.20
73360;DHT22;63092;43.582;19.528;2023-08-07T13:20:02;25.70;83.50
73360;DHT22;63092;43.582;19.528;2023-08-07T13:24:59;26.00;84.70
73360;DHT22;63092;43.582;19.528;2023-08-07T13:27:25;26.00;84.00
73360;DHT22;63092;43.582;19.528;2023-08-07T13:29:51;26.10;83.20
73360;DHT22;63092;43.582;19.528;2023-08-07T13:32:16;26.20;82.00
73360;DHT22;63092;43.582;19.528;2023-08-07T13:34:44;26.30;81.90
73360;DHT22;63092;43.582;19.528;2023-08-07T13:37:11;26.40;82.10
73360;DHT22;63092;43.582;19.528;2023-08-07T13:39:36;26.30;81.20
73360;DHT22;63092;43.582;19.528;2023-08-07T13:42:02;26.50;80.30
73360;DHT22;63092;43.582;19.528;2023-08-07T13:44:28;26.40;80.70
73360;DHT22;63092;43.582;19.528;2023-08-07T13:46:55;26.20;80.70
73360;DHT22;63092;43.582;19.528;2023-08-07T13:51:49;25.60;81.50
73360;DHT22;63092;43.582;19.528;2023-08-07T13:54:15;25.30;83.00
73360;DHT22;63092;43.582;19.528;2023-08-07T13:56:41;25.00;84.10
73360;DHT22;63092;43.582;19.528;2023-08-07T13:59:07;24.50;85.10
73360;DHT22;63092;43.582;19.528;2023-08-07T14:01:33;24.20;85.40
73360;DHT22;63092;43.582;19.528;2023-08-07T14:04:01;23.60;86.90
73360;DHT22;63092;43.582;19.528;2023-08-07T14:06:27;23.10;87.00
73360;DHT22;63092;43.582;19.528;2023-08-07T14:08:52;23.00;87.60
73360;DHT22;63092;43.582;19.528;2023-08-07T14:11:18;22.80;86.80
73360;DHT22;63092;43.582;19.528;2023-08-07T14:13:45;22.50;87.90
73360;DHT22;63092;43.582;19.528;2023-08-07T14:16:12;22.30;89.60
73360;DHT22;63092;43.582;19.528;2023-08-07T14:18:38;22.30;88.50
73360;DHT22;63092;43.582;19.528;2023-08-07T14:21:03;22.10;90.00
73360;DHT22;63092;43.582;19.528;2023-08-07T14:23:30;22.20;90.20
73360;DHT22;63092;43.582;19.528;2023-08-07T14:25:56;22.40;90.50
73360;DHT22;63092;43.582;19.528;2023-08-07T14:28:22;22.50;90.40
73360;DHT22;63092;43.582;19.528;2023-08-07T14:30:48;22.50;90.50
73360;DHT22;63092;43.582;19.528;2023-08-07T14:33:14;22.50;90.70
73360;DHT22;63092;43.582;19.528;2023-08-07T14:35:40;22.60;90.60
73360;DHT22;63092;43.582;19.528;2023-08-07T14:38:06;22.60;90.80
73360;DHT22;63092;43.582;19.528;2023-08-07T14:40:31;22.40;90.80
73360;DHT22;63092;43.582;19.528;2023-08-07T14:42:57;22.50;91.00
73360;DHT22;63092;43.582;19.528;2023-08-07T14:45:24;22.40;90.90
73360;DHT22;63092;43.582;19.528;2023-08-07T14:47:50;22.40;90.40
73360;DHT22;63092;43.582;19.528;2023-08-07T14:50:16;22.30;90.50
73360;DHT22;63092;43.582;19.528;2023-08-07T14:52:42;22.20;90.60
73360;DHT22;63092;43.582;19.528;2023-08-07T14:55:08;22.30;90.50
73360;DHT22;63092;43.582;19.528;2023-08-07T14:57:35;22.30;90.60
73360;DHT22;63092;43.582;19.528;2023-08-07T15:00:01;22.50;90.70
73360;DHT22;63092;43.582;19.528;2023-08-07T15:02:26;22.60;90.30
73360;DHT22;63092;43.582;19.528;2023-08-07T15:04:53;22.70;90.10
73360;DHT22;63092;43.582;19.528;2023-08-07T15:07:19;22.70;89.50
73360;DHT22;63092;43.582;19.528;2023-08-07T15:09:45;22.70;89.30
73360;DHT22;63092;43.582;19.528;2023-08-07T15:12:12;22.70;89.50
73360;DHT22;63092;43.582;19.528;2023-08-07T15:14:37;22.80;89.40
73360;DHT22;63092;43.582;19.528;2023-08-07T15:17:03;22.80;89.90
73360;DHT22;63092;43.582;19.528;2023-08-07T15:19:29;22.90;90.00
73360;DHT22;63092;43.582;19.528;2023-08-07T15:21:55;22.90;90.50
73360;DHT22;63092;43.582;19.528;2023-08-07T15:24:21;22.90;90.30
73360;DHT22;63092;43.582;19.528;2023-08-07T15:26:46;22.90;90.20
73360;DHT22;63092;43.582;19.528;2023-08-07T15:29:12;22.80;90.00
73360;DHT22;63092;43.582;19.528;2023-08-07T15:31:38;22.70;89.80
73360;DHT22;63092;43.582;19.528;2023-08-07T15:34:04;22.80;90.00
73360;DHT22;63092;43.582;19.528;2023-08-07T15:36:29;22.70;90.20
73360;DHT22;63092;43.582;19.528;2023-08-07T15:38:55;22.60;90.30
73360;DHT22;63092;43.582;19.528;2023-08-07T15:41:22;22.50;90.70
73360;DHT22;63092;43.582;19.528;2023-08-07T15:43:48;22.50;91.00